Airport View

Enter AWOS ICAO identifier for current METAR.

ex. KFNL

KRYW 191855Z AUTO 20009G15KT 10SM CLR 33/22 A2984 RMK AO2 T03330220

19 Jun 2019 19:06

Frequency: 119.375

Phone: 512-267-1365

Other Area AWOS: KATT - KGTU - KBMQ - KDZB

TAF KAUS 191720Z 1918/2024 20014KT P6SM FEW250 FM200100 16012KT P6SM SCT250 FM200700 16010KT P6SM BKN025 FM201400 18012KT P6SM SCT050